createdAt,value
2022-09-23T00:01:55.157Z,9.01
2022-09-23T00:04:41.374Z,8.95
2022-09-23T00:07:26.275Z,8.96
2022-09-23T00:10:11.100Z,8.97
2022-09-23T00:12:55.843Z,9.00
2022-09-23T00:15:40.768Z,8.96
2022-09-23T00:18:25.587Z,8.88
2022-09-23T00:21:13.154Z,8.85
2022-09-23T00:23:58.546Z,8.79
2022-09-23T00:26:43.688Z,8.77
2022-09-23T00:29:28.947Z,8.76
2022-09-23T00:32:14.338Z,8.76
2022-09-23T00:34:59.398Z,8.74
2022-09-23T00:37:44.169Z,8.73
2022-09-23T00:40:29.084Z,8.71
2022-09-23T00:43:15.181Z,8.69
2022-09-23T00:46:00.363Z,8.73
2022-09-23T00:48:47.506Z,8.77
2022-09-23T00:51:36.503Z,8.75
2022-09-23T00:54:23.972Z,8.78
2022-09-23T00:57:11.052Z,8.74
2022-09-23T00:59:56.684Z,8.81
2022-09-23T01:02:41.554Z,8.76
2022-09-23T01:05:26.463Z,8.74
2022-09-23T01:08:13.844Z,8.78
2022-09-23T01:11:02.430Z,8.79
2022-09-23T01:14:15.195Z,8.81
2022-09-23T01:17:15.853Z,8.79
2022-09-23T01:20:24.245Z,8.77
2022-09-23T01:23:51.173Z,8.70
2022-09-23T01:26:58.970Z,8.64
2022-09-23T01:30:09.221Z,8.66
2022-09-23T01:33:13.156Z,8.59
2022-09-23T01:36:15.921Z,8.57
2022-09-23T01:39:12.754Z,8.61
2022-09-23T01:42:17.231Z,8.54
2022-09-23T01:45:12.529Z,8.54
2022-09-23T01:48:23.170Z,8.51
2022-09-23T01:51:15.241Z,8.51
2022-09-23T01:54:22.335Z,8.50
2022-09-23T01:57:33.245Z,8.44
2022-09-23T02:00:22.219Z,8.45
2022-09-23T02:03:13.427Z,8.38
2022-09-23T02:06:06.934Z,8.31
2022-09-23T02:08:58.048Z,8.31
2022-09-23T02:11:47.991Z,8.31
2022-09-23T02:14:44.222Z,8.25
2022-09-23T02:17:53.535Z,8.19
2022-09-23T02:20:42.155Z,8.20
2022-09-23T02:23:32.886Z,8.16
2022-09-23T02:26:23.016Z,8.15
2022-09-23T02:29:25.064Z,8.13
2022-09-23T02:32:34.348Z,8.09
2022-09-23T02:35:48.848Z,8.14
2022-09-23T02:38:41.530Z,8.14
2022-09-23T02:41:49.591Z,8.09
2022-09-23T02:44:34.647Z,8.05
2022-09-23T02:47:24.680Z,8.08
2022-09-23T02:50:09.750Z,8.01
2022-09-23T02:52:54.911Z,8.01
2022-09-23T02:55:39.978Z,7.99
2022-09-23T02:58:25.429Z,8.00
2022-09-23T03:01:32.461Z,8.00
2022-09-23T03:04:35.710Z,7.89
2022-09-23T03:07:43.970Z,7.84
2022-09-23T03:10:52.892Z,7.80
2022-09-23T03:14:16.836Z,7.77
2022-09-23T03:17:06.909Z,7.75
2022-09-23T03:20:12.473Z,7.77
2022-09-23T03:23:02.576Z,7.73
2022-09-23T03:25:50.248Z,7.79
2022-09-23T03:28:37.156Z,7.84
2022-09-23T03:31:22.142Z,7.80
2022-09-23T03:34:14.668Z,7.79
2022-09-23T03:37:21.552Z,7.76
2022-09-23T03:40:18.047Z,7.74
2022-09-23T03:43:04.901Z,7.73
2022-09-23T03:45:54.504Z,7.76
2022-09-23T03:48:40.618Z,7.74
2022-09-23T03:51:25.592Z,7.73
2022-09-23T03:54:10.884Z,7.73
2022-09-23T03:56:59.533Z,7.66
2022-09-23T03:59:44.495Z,7.62
2022-09-23T04:02:29.749Z,7.60
2022-09-23T04:05:14.872Z,7.60
2022-09-23T04:08:00.043Z,7.62
2022-09-23T04:10:46.844Z,7.59
2022-09-23T04:13:32.381Z,7.60
2022-09-23T04:16:17.788Z,7.60
2022-09-23T04:19:02.721Z,7.60
2022-09-23T04:21:48.216Z,7.56
2022-09-23T04:24:33.397Z,7.51
2022-09-23T04:27:18.616Z,7.56
2022-09-23T04:30:05.033Z,7.51
2022-09-23T04:32:52.483Z,7.46
2022-09-23T04:35:40.273Z,7.38
2022-09-23T04:38:26.070Z,7.39
2022-09-23T04:41:11.192Z,7.29
2022-09-23T04:43:57.348Z,7.34
2022-09-23T04:46:43.838Z,7.29
2022-09-23T04:49:29.891Z,7.24
2022-09-23T04:52:15.034Z,7.20
2022-09-23T04:54:59.748Z,7.27
2022-09-23T04:57:44.572Z,7.22
2022-09-23T05:00:29.545Z,7.23
2022-09-23T05:03:15.007Z,7.25
2022-09-23T05:06:01.913Z,7.14
2022-09-23T05:08:51.190Z,7.16
2022-09-23T05:11:36.070Z,7.13
2022-09-23T05:14:21.003Z,7.12
2022-09-23T05:17:06.887Z,7.15
2022-09-23T05:19:51.860Z,7.23
2022-09-23T05:22:36.887Z,7.20
2022-09-23T05:25:23.688Z,7.19
2022-09-23T05:28:09.336Z,7.18
2022-09-23T05:31:02.322Z,7.10
2022-09-23T05:33:51.675Z,7.14
2022-09-23T05:36:38.810Z,7.13
2022-09-23T05:39:23.996Z,7.15
2022-09-23T05:42:09.180Z,7.22
2022-09-23T05:44:54.256Z,7.29
2022-09-23T05:47:39.704Z,7.43
2022-09-23T05:50:24.814Z,7.46
2022-09-23T05:53:09.633Z,7.41
2022-09-23T05:55:54.505Z,7.50
2022-09-23T05:58:39.634Z,7.56
2022-09-23T06:01:27.798Z,7.59
2022-09-23T06:04:14.184Z,7.63
2022-09-23T06:07:03.306Z,7.68
2022-09-23T06:09:48.924Z,7.78
2022-09-23T06:12:35.148Z,7.84
2022-09-23T06:15:20.061Z,7.84
2022-09-23T06:18:06.399Z,7.90
2022-09-23T06:20:51.911Z,7.85
2022-09-23T06:23:39.867Z,7.86
2022-09-23T06:26:27.287Z,7.94
2022-09-23T06:29:12.390Z,7.95
2022-09-23T06:31:59.573Z,8.09
2022-09-23T06:34:51.670Z,8.20
2022-09-23T06:37:36.902Z,8.21
2022-09-23T06:40:22.461Z,8.34
2022-09-23T06:43:08.332Z,8.48
2022-09-23T06:45:57.849Z,8.60
2022-09-23T06:48:46.181Z,8.61
2022-09-23T06:51:31.936Z,8.65
2022-09-23T06:54:17.003Z,8.67
2022-09-23T06:57:01.831Z,8.69
2022-09-23T06:59:46.744Z,8.73
2022-09-23T07:02:31.711Z,8.84
2022-09-23T07:05:17.207Z,8.64
2022-09-23T07:08:03.107Z,8.93
2022-09-23T07:10:53.069Z,9.09
2022-09-23T07:13:39.751Z,9.20
2022-09-23T07:16:24.783Z,9.32
2022-09-23T07:19:09.625Z,9.60
2022-09-23T07:21:54.421Z,9.85
2022-09-23T07:24:39.334Z,9.97
2022-09-23T07:27:25.240Z,10.14
2022-09-23T07:30:19.427Z,10.26
2022-09-23T07:33:21.943Z,10.49
2022-09-23T07:36:17.116Z,10.73
2022-09-23T07:39:03.433Z,10.79
2022-09-23T07:41:49.163Z,11.04
2022-09-23T07:44:34.322Z,11.23
2022-09-23T07:47:20.407Z,11.36
2022-09-23T07:50:07.546Z,11.59
2022-09-23T07:52:52.895Z,11.96
2022-09-23T07:55:38.051Z,12.05
2022-09-23T07:58:23.395Z,12.23
2022-09-23T08:01:10.243Z,12.08
2022-09-23T08:04:00.117Z,12.29
2022-09-23T08:06:47.987Z,12.40
2022-09-23T08:09:41.289Z,12.65
2022-09-23T08:12:27.044Z,12.46
2022-09-23T08:15:12.083Z,12.75
2022-09-23T08:17:59.702Z,12.82
2022-09-23T08:20:47.146Z,12.95
2022-09-23T08:23:33.810Z,12.99
2022-09-23T08:26:21.961Z,12.98
2022-09-23T08:29:10.044Z,13.29
2022-09-23T08:31:55.407Z,13.35
2022-09-23T08:34:40.620Z,13.36
2022-09-23T08:37:25.430Z,13.32
2022-09-23T08:40:10.559Z,13.22
2022-09-23T08:42:56.755Z,13.51
2022-09-23T08:45:43.369Z,13.53
2022-09-23T08:48:32.111Z,13.90
2022-09-23T08:51:29.187Z,14.04
2022-09-23T08:54:17.632Z,14.54
2022-09-23T08:57:05.639Z,15.16
2022-09-23T08:59:50.696Z,15.73
2022-09-23T09:02:36.569Z,16.26
2022-09-23T09:05:27.467Z,15.25
2022-09-23T09:08:12.878Z,15.19
2022-09-23T09:10:58.274Z,16.22
2022-09-23T09:13:59.599Z,17.10
2022-09-23T09:17:00.130Z,15.71
2022-09-23T09:19:53.629Z,15.94
2022-09-23T09:22:52.609Z,15.81
2022-09-23T09:25:51.832Z,16.21
2022-09-23T09:28:45.991Z,16.50
2022-09-23T09:31:34.501Z,16.54
2022-09-23T09:34:32.471Z,17.74
2022-09-23T09:37:31.652Z,17.28
2022-09-23T09:40:17.690Z,16.76
2022-09-23T09:43:04.556Z,17.51
2022-09-23T09:46:08.159Z,16.78
2022-09-23T09:48:59.151Z,17.64
2022-09-23T09:51:44.244Z,17.68
2022-09-23T09:54:29.117Z,17.41
2022-09-23T09:57:30.666Z,17.82
2022-09-23T10:00:33.053Z,16.44
2022-09-23T10:03:17.834Z,16.61
2022-09-23T10:06:17.794Z,16.15
2022-09-23T10:09:19.363Z,16.91
2022-09-23T10:12:14.775Z,17.10
2022-09-23T10:15:00.927Z,18.05
2022-09-23T10:17:51.176Z,18.08
2022-09-23T10:20:38.107Z,18.43
2022-09-23T10:23:28.032Z,19.28
2022-09-23T10:26:15.027Z,19.03
2022-09-23T10:29:04.426Z,18.50
2022-09-23T10:31:52.661Z,17.70
2022-09-23T10:34:43.195Z,17.62
2022-09-23T10:37:49.281Z,18.24
2022-09-23T10:41:01.761Z,18.42
2022-09-23T10:44:40.872Z,18.19
2022-09-23T10:47:35.992Z,18.52
2022-09-23T10:50:38.140Z,18.79
2022-09-23T10:53:52.773Z,18.15
2022-09-23T10:56:48.153Z,19.30
2022-09-23T10:59:47.477Z,18.94
2022-09-23T11:03:03.903Z,18.75
2022-09-23T11:06:14.079Z,18.32
2022-09-23T11:09:05.296Z,18.85
2022-09-23T11:12:13.211Z,18.35
2022-09-23T11:15:22.215Z,18.35
2022-09-23T11:18:41.978Z,18.31
2022-09-23T11:21:29.794Z,18.87
2022-09-23T11:24:57.945Z,18.95
2022-09-23T11:27:58.097Z,19.72
2022-09-23T11:31:40.035Z,19.23
2022-09-23T11:34:39.979Z,19.26
2022-09-23T11:37:30.584Z,18.90
2022-09-23T11:40:32.964Z,18.45
2022-09-23T11:43:28.500Z,18.36
2022-09-23T11:46:38.701Z,18.03
2022-09-23T11:49:47.501Z,17.96
2022-09-23T11:52:44.551Z,17.75
2022-09-23T11:55:42.015Z,17.96
2022-09-23T11:58:37.749Z,17.82
2022-09-23T12:01:38.060Z,17.77
2022-09-23T12:04:52.201Z,17.77
2022-09-23T12:07:53.982Z,18.02
2022-09-23T12:11:06.398Z,18.16
2022-09-23T12:14:13.672Z,18.29
2022-09-23T12:17:27.415Z,18.39
2022-09-23T12:21:03.605Z,18.06
2022-09-23T12:24:02.940Z,18.19
2022-09-23T12:26:56.084Z,18.65
2022-09-23T12:29:41.607Z,18.74
2022-09-23T12:32:27.502Z,18.67
2022-09-23T12:35:22.624Z,18.68
2022-09-23T12:38:20.148Z,18.85
2022-09-23T12:41:28.011Z,18.56
2022-09-23T12:44:13.386Z,18.53
2022-09-23T12:47:14.068Z,18.58
2022-09-23T12:50:01.042Z,18.86
2022-09-23T12:52:45.853Z,18.63
2022-09-23T12:55:54.150Z,18.64
2022-09-23T12:58:42.217Z,18.52
2022-09-23T13:01:28.558Z,18.45
2022-09-23T13:05:03.179Z,18.25
2022-09-23T13:07:50.390Z,18.30
2022-09-23T13:10:45.674Z,18.31
2022-09-23T13:13:42.880Z,18.22
2022-09-23T13:16:34.201Z,18.20
2022-09-23T13:19:25.547Z,18.14
2022-09-23T13:22:12.113Z,18.10
2022-09-23T13:25:08.633Z,17.98
2022-09-23T13:28:01.416Z,18.08
2022-09-23T13:30:51.959Z,18.22
2022-09-23T13:33:42.575Z,18.22
2022-09-23T13:36:27.613Z,18.29
2022-09-23T13:39:22.474Z,18.04
2022-09-23T13:42:17.173Z,18.11
2022-09-23T13:45:02.192Z,18.01
2022-09-23T13:47:48.750Z,18.00
2022-09-23T13:50:36.380Z,18.07
2022-09-23T13:53:30.878Z,17.99
2022-09-23T13:56:16.868Z,18.00
2022-09-23T13:59:38.412Z,17.95
2022-09-23T14:02:25.736Z,17.85
2022-09-23T14:05:12.706Z,17.96
2022-09-23T14:07:57.877Z,17.92
2022-09-23T14:10:45.888Z,17.95
2022-09-23T14:13:35.841Z,17.82
2022-09-23T14:16:25.025Z,17.98
2022-09-23T14:19:28.088Z,17.85
2022-09-23T14:22:27.529Z,17.74
2022-09-23T14:25:17.638Z,17.92
2022-09-23T14:28:03.328Z,17.82
2022-09-23T14:30:50.989Z,17.88
2022-09-23T14:33:40.913Z,17.88
2022-09-23T14:36:44.644Z,17.82
2022-09-23T14:39:29.847Z,17.47
2022-09-23T14:42:15.323Z,17.41
2022-09-23T14:45:00.145Z,17.49
2022-09-23T14:47:49.888Z,17.46
2022-09-23T14:50:40.258Z,17.51
2022-09-23T14:53:34.413Z,17.63
2022-09-23T14:56:21.918Z,17.41
2022-09-23T14:59:25.376Z,17.38
2022-09-23T15:02:34.804Z,17.47
2022-09-23T15:05:50.217Z,17.53
2022-09-23T15:08:35.740Z,17.21
2022-09-23T15:11:25.072Z,17.26
2022-09-23T15:14:36.202Z,17.32
2022-09-23T15:17:25.036Z,17.36
2022-09-23T15:20:16.273Z,17.36
2022-09-23T15:23:01.617Z,17.33
2022-09-23T15:25:51.193Z,17.33
2022-09-23T15:28:36.928Z,17.43
2022-09-23T15:31:27.327Z,17.30
2022-09-23T15:34:12.909Z,17.32
2022-09-23T15:36:58.022Z,17.34
2022-09-23T15:39:43.903Z,17.35
2022-09-23T15:42:29.446Z,17.30
2022-09-23T15:45:14.784Z,17.12
2022-09-23T15:48:06.744Z,17.10
2022-09-23T15:50:54.251Z,17.09
2022-09-23T15:53:39.444Z,16.95
2022-09-23T15:56:24.881Z,16.84
2022-09-23T15:59:10.116Z,16.77
2022-09-23T16:01:56.750Z,16.70
2022-09-23T16:04:41.602Z,16.71
2022-09-23T16:07:26.577Z,16.67
2022-09-23T16:10:11.351Z,16.62
2022-09-23T16:13:00.949Z,16.47
2022-09-23T16:15:46.393Z,16.44
2022-09-23T16:18:31.928Z,16.36
2022-09-23T16:21:19.789Z,16.29
2022-09-23T16:24:04.735Z,16.27
2022-09-23T16:26:49.746Z,16.26
2022-09-23T16:29:34.945Z,16.32
2022-09-23T16:32:22.218Z,16.30
2022-09-23T16:35:08.303Z,16.02
2022-09-23T16:37:54.285Z,15.95
2022-09-23T16:40:43.538Z,15.93
2022-09-23T16:43:32.662Z,15.77
2022-09-23T16:46:18.439Z,15.72
2022-09-23T16:49:03.765Z,15.63
2022-09-23T16:51:48.899Z,15.63
2022-09-23T16:54:37.272Z,15.69
2022-09-23T16:57:22.080Z,15.63
2022-09-23T17:00:30.456Z,15.53
2022-09-23T17:03:34.304Z,15.39
2022-09-23T17:06:19.420Z,15.33
2022-09-23T17:09:04.961Z,15.13
2022-09-23T17:12:11.872Z,14.95
2022-09-23T17:14:57.032Z,14.78
2022-09-23T17:17:41.893Z,14.79
2022-09-23T17:20:26.728Z,14.88
2022-09-23T17:23:11.649Z,14.94
2022-09-23T17:25:56.512Z,14.84
2022-09-23T17:28:41.998Z,14.76
2022-09-23T17:31:27.268Z,14.75
2022-09-23T17:34:12.556Z,14.73
2022-09-23T17:36:57.655Z,14.78
2022-09-23T17:39:42.577Z,14.70
2022-09-23T17:42:27.715Z,14.66
2022-09-23T17:45:12.889Z,14.64
2022-09-23T17:47:57.692Z,14.60
2022-09-23T17:50:42.656Z,14.61
2022-09-23T17:53:34.890Z,14.44
2022-09-23T17:56:31.976Z,14.47
2022-09-23T17:59:16.803Z,14.41
2022-09-23T18:02:01.812Z,14.39
2022-09-23T18:04:46.994Z,14.35
2022-09-23T18:07:31.991Z,14.32
2022-09-23T18:10:16.727Z,14.26
2022-09-23T18:13:01.735Z,14.14
2022-09-23T18:15:46.985Z,14.13
2022-09-23T18:18:31.867Z,14.08
2022-09-23T18:21:16.797Z,13.96
2022-09-23T18:24:28.152Z,13.89
2022-09-23T18:27:07.356Z,13.88
2022-09-23T18:29:52.462Z,13.87
2022-09-23T18:32:37.240Z,13.87
2022-09-23T18:35:22.032Z,13.86
2022-09-23T18:38:06.794Z,13.82
2022-09-23T18:40:57.630Z,13.78
2022-09-23T18:43:48.122Z,13.76
2022-09-23T18:46:33.836Z,13.75
2022-09-23T18:49:37.419Z,13.70
2022-09-23T18:52:22.607Z,13.68
2022-09-23T18:55:07.973Z,13.63
2022-09-23T18:57:53.128Z,13.60
2022-09-23T19:00:39.124Z,13.48
2022-09-23T19:03:23.997Z,13.43
2022-09-23T19:06:21.130Z,13.43
2022-09-23T19:09:07.086Z,13.45
2022-09-23T19:11:52.681Z,13.40
2022-09-23T19:14:37.985Z,13.36
2022-09-23T19:17:23.270Z,13.33
2022-09-23T19:20:09.948Z,13.36
2022-09-23T19:22:54.729Z,13.36
2022-09-23T19:25:39.503Z,13.37
2022-09-23T19:28:25.135Z,13.34
2022-09-23T19:31:13.741Z,13.30
2022-09-23T19:34:04.508Z,13.31
2022-09-23T19:36:50.004Z,13.19
2022-09-23T19:39:37.309Z,13.16
2022-09-23T19:42:22.984Z,13.14
2022-09-23T19:45:08.356Z,13.17
2022-09-23T19:47:56.289Z,13.16
2022-09-23T19:50:41.471Z,13.17
2022-09-23T19:53:28.275Z,13.17
2022-09-23T19:56:17.563Z,13.15
2022-09-23T19:59:05.668Z,13.13
2022-09-23T20:01:50.602Z,13.04
2022-09-23T20:04:35.387Z,13.04
2022-09-23T20:07:20.224Z,13.06
2022-09-23T20:10:05.368Z,13.12
2022-09-23T20:12:50.419Z,13.16
2022-09-23T20:15:36.730Z,13.20
2022-09-23T20:18:21.723Z,13.23
2022-09-23T20:21:09.142Z,13.22
2022-09-23T20:23:54.195Z,13.20
2022-09-23T20:26:57.866Z,13.18
2022-09-23T20:29:43.219Z,13.15
2022-09-23T20:32:28.113Z,13.09
2022-09-23T20:35:13.505Z,13.03
2022-09-23T20:37:58.842Z,13.05
2022-09-23T20:40:44.088Z,13.05
2022-09-23T20:43:29.146Z,13.05
2022-09-23T20:46:17.425Z,12.96
2022-09-23T20:49:03.464Z,12.87
2022-09-23T20:51:48.896Z,12.88
2022-09-23T20:54:34.227Z,12.83
2022-09-23T20:57:20.168Z,12.84
2022-09-23T21:00:07.497Z,12.84
2022-09-23T21:02:52.584Z,12.79
2022-09-23T21:05:37.520Z,12.72
2022-09-23T21:08:23.036Z,12.74
2022-09-23T21:11:11.143Z,12.78
2022-09-23T21:13:56.438Z,12.87
2022-09-23T21:16:41.478Z,12.90
2022-09-23T21:19:27.766Z,12.97
2022-09-23T21:22:12.568Z,12.96
2022-09-23T21:25:27.027Z,12.97
2022-09-23T21:28:03.529Z,12.96
2022-09-23T21:30:51.846Z,12.90
2022-09-23T21:33:37.396Z,12.80
2022-09-23T21:36:23.322Z,12.79
2022-09-23T21:39:10.320Z,12.79
2022-09-23T21:41:55.429Z,12.77
2022-09-23T21:44:40.380Z,12.72
2022-09-23T21:47:25.903Z,12.70
2022-09-23T21:50:11.840Z,12.66
2022-09-23T21:52:57.135Z,12.60
2022-09-23T21:55:42.331Z,12.64
2022-09-23T21:58:28.494Z,12.64
2022-09-23T22:01:15.242Z,12.65
2022-09-23T22:04:08.588Z,12.64
2022-09-23T22:06:53.840Z,12.62
2022-09-23T22:09:40.003Z,12.67
2022-09-23T22:12:25.118Z,12.69
2022-09-23T22:15:10.039Z,12.77
2022-09-23T22:17:55.027Z,12.85
2022-09-23T22:20:40.658Z,12.86
2022-09-23T22:23:25.560Z,12.88
2022-09-23T22:26:10.397Z,12.90
2022-09-23T22:29:13.872Z,12.91
2022-09-23T22:32:18.771Z,12.92
2022-09-23T22:35:04.484Z,12.95
2022-09-23T22:37:49.495Z,12.93
2022-09-23T22:40:35.836Z,12.91
2022-09-23T22:43:20.620Z,12.95
2022-09-23T22:46:05.456Z,12.97
2022-09-23T22:48:52.150Z,12.87
2022-09-23T22:51:38.940Z,12.87
2022-09-23T22:54:23.816Z,12.85
2022-09-23T22:57:09.240Z,12.91
2022-09-23T22:59:54.526Z,12.90
2022-09-23T23:02:40.151Z,12.95
2022-09-23T23:05:25.332Z,12.91
2022-09-23T23:08:11.135Z,12.86
2022-09-23T23:10:58.099Z,12.82
2022-09-23T23:13:43.019Z,12.78
2022-09-23T23:16:29.434Z,12.78
2022-09-23T23:19:16.883Z,12.78
2022-09-23T23:22:03.515Z,12.79
2022-09-23T23:24:49.860Z,12.79
2022-09-23T23:27:35.184Z,12.76
2022-09-23T23:30:20.284Z,12.75
2022-09-23T23:33:05.142Z,12.69
2022-09-23T23:35:51.165Z,12.67
2022-09-23T23:38:41.461Z,12.74
2022-09-23T23:41:28.242Z,12.67
2022-09-23T23:44:13.520Z,12.66
2022-09-23T23:46:58.338Z,12.70
2022-09-23T23:49:43.243Z,12.68
2022-09-23T23:52:28.074Z,12.64
2022-09-23T23:55:12.980Z,12.66
2022-09-23T23:58:02.128Z,12.58
